Time;durP1;ratioP1;P1;durP2;ratioP2;P2;SDS_P1;SDS_P2;PMS_P1;PMS_P2;Temp;Humidity;BMP_temperature;BMP_pressure;BME280_temperature;BME280_humidity;BME280_pressure;Samples;Min_cycle;Max_cycle;Signal;HPM_P1;HPM_P2
2022/09/04 00:00:07;;;;;;;7.82;7.03;;;;;;;21.79;100.00;99636.84;5052289;28;20226;-81
2022/09/04 00:02:49;;;;;;;6.45;5.95;;;;;;;21.67;99.77;99625.38;5052167;28;20584;-81
2022/09/04 00:05:22;;;;;;;8.80;6.53;;;;;;;21.77;99.97;99645.88;5052444;28;20665;-81
2022/09/04 00:07:58;;;;;;;7.15;6.15;;;;;;;21.54;100.00;99619.31;5052109;28;20540;-81
2022/09/04 00:10:31;;;;;;;6.97;6.18;;;;;;;21.80;99.25;99645.63;5052168;28;20196;-81
2022/09/04 00:13:05;;;;;;;6.35;6.05;;;;;;;21.61;99.38;99631.13;5052648;28;20704;-82
2022/09/04 00:15:36;;;;;;;6.55;5.68;;;;;;;21.83;99.07;99661.25;5057475;28;20223;-82
2022/09/04 00:18:08;;;;;;;5.95;5.57;;;;;;;21.67;98.84;99641.22;5072051;28;20200;-81
2022/09/04 00:20:40;;;;;;;6.32;5.85;;;;;;;21.70;99.81;99651.56;5072492;28;20278;-82
2022/09/04 00:23:17;;;;;;;6.90;6.22;;;;;;;21.57;100.00;99674.53;5072020;28;20196;-81
2022/09/04 00:25:52;;;;;;;6.53;5.97;;;;;;;21.52;100.00;99667.91;5071964;28;20222;-82
2022/09/04 00:28:32;;;;;;;6.95;6.28;;;;;;;21.54;100.00;99673.94;5072008;28;20585;-82
2022/09/04 00:31:07;;;;;;;6.05;5.65;;;;;;;21.54;100.00;99650.16;5072080;28;20196;-82
2022/09/04 00:33:43;;;;;;;6.10;5.70;;;;;;;21.68;99.97;99677.25;5072180;28;20199;-81
2022/09/04 00:36:12;;;;;;;6.70;6.15;;;;;;;21.61;100.00;99668.09;5071821;28;20196;-80
2022/09/04 00:38:43;;;;;;;6.28;5.75;;;;;;;21.56;100.00;99675.50;5071736;28;20196;-81
2022/09/04 00:41:15;;;;;;;6.10;5.60;;;;;;;;;;5071404;28;20200;-81
2022/09/04 00:44:26;;;;;;;6.45;6.05;;;;;;;21.63;100.00;99692.63;5072328;28;20203;-79
2022/09/04 00:47:20;;;;;;;6.50;6.10;;;;;;;21.59;100.00;99698.22;5072182;28;20263;-81
2022/09/04 00:50:23;;;;;;;6.25;5.85;;;;;;;21.33;100.00;99714.09;5062915;28;20203;-81
2022/09/04 00:53:08;;;;;;;6.60;6.20;;;;;;;21.22;100.00;99700.78;5024361;28;20230;-81
2022/09/04 00:55:51;;;;;;;9.35;6.35;;;;;;;21.08;100.00;99671.03;5071424;28;20588;-80
2022/09/04 00:58:31;;;;;;;7.30;6.53;;;;;;;21.10;100.00;99687.59;5071340;28;20246;-81
2022/09/04 01:01:00;;;;;;;7.10;6.60;;;;;;;20.89;100.00;99689.91;5070922;28;20202;-81
2022/09/04 01:03:46;;;;;;;8.10;7.32;;;;;;;20.83;100.00;99690.31;5071441;28;20199;-81
2022/09/04 01:06:28;;;;;;;6.93;6.45;;;;;;;20.66;100.00;99683.53;5071109;28;20243;-80
2022/09/04 01:09:14;;;;;;;7.72;7.13;;;;;;;20.75;100.00;99706.69;5071125;28;20203;-79
2022/09/04 01:11:45;;;;;;;7.40;6.80;;;;;;;20.63;100.00;99712.78;5070974;28;20226;-80
2022/09/04 01:14:21;;;;;;;7.40;6.72;;;;;;;20.58;100.00;99710.44;5070139;28;20599;-78
2022/09/04 01:16:55;;;;;;;7.93;7.28;;;;;;;20.60;100.00;99711.19;5070721;28;20318;-79
2022/09/04 01:19:39;;;;;;;7.55;7.00;;;;;;;20.63;100.00;99713.63;5070757;28;20196;-79
2022/09/04 01:22:29;;;;;;;8.27;7.53;;;;;;;20.51;100.00;99714.44;5070421;28;20196;-79
2022/09/04 01:25:27;;;;;;;8.40;7.63;;;;;;;20.47;100.00;99715.59;5070804;28;20230;-80
2022/09/04 01:28:03;;;;;;;7.35;6.93;;;;;;;20.44;100.00;99712.31;5070441;28;20207;-79
2022/09/04 01:30:37;;;;;;;8.10;7.50;;;;;;;20.26;100.00;99687.97;5070506;28;20203;-79
2022/09/04 01:33:12;;;;;;;7.70;7.03;;;;;;;20.30;100.00;99711.41;5069894;28;20216;-80
2022/09/04 01:35:50;;;;;;;9.80;7.55;;;;;;;20.25;100.00;99705.59;5070515;28;20680;-79
2022/09/04 01:38:25;;;;;;;8.35;7.65;;;;;;;20.31;100.00;99705.16;5070256;28;20735;-80
2022/09/04 01:41:00;;;;;;;7.57;6.97;;;;;;;20.19;100.00;99703.38;5070583;28;20195;-79
2022/09/04 01:43:28;;;;;;;8.25;7.65;;;;;;;20.11;100.00;99705.63;5070223;28;20245;-79
2022/09/04 01:46:08;;;;;;;8.32;7.68;;;;;;;20.00;100.00;99705.47;5070411;28;20235;-80
2022/09/04 01:48:43;;;;;;;8.65;7.88;;;;;;;20.04;100.00;99709.63;5070589;28;20206;-79
2022/09/04 01:51:20;;;;;;;8.32;7.65;;;;;;;20.10;100.00;99709.19;5070283;28;20293;-79
2022/09/04 01:53:59;;;;;;;8.50;7.90;;;;;;;20.16;100.00;99711.47;5070508;28;20310;-80
2022/09/04 01:56:34;;;;;;;8.35;7.75;;;;;;;20.11;100.00;99707.41;5070145;28;20202;-80
2022/09/04 01:59:13;;;;;;;9.73;8.18;;;;;;;20.05;100.00;99706.03;5069966;28;20903;-80
2022/09/04 02:01:48;;;;;;;9.05;8.13;;;;;;;20.03;100.00;99705.28;5070458;28;20215;-79
2022/09/04 02:04:22;;;;;;;8.75;8.15;;;;;;;20.02;100.00;99723.81;5070865;28;20195;-79
2022/09/04 02:07:02;;;;;;;8.77;8.13;;;;;;;20.07;100.00;99721.75;5070125;28;20191;-79
2022/09/04 02:09:37;;;;;;;8.25;7.55;;;;;;;20.08;100.00;99726.94;5070132;28;20257;-81
2022/09/04 02:12:16;;;;;;;8.57;7.40;;;;;;;20.01;100.00;99725.63;5070235;28;20273;-80
2022/09/04 02:14:54;;;;;;;8.90;8.07;;;;;;;20.04;100.00;99728.06;5069831;28;20196;-79
2022/09/04 02:17:33;;;;;;;9.00;8.07;;;;;;;20.02;100.00;99718.56;5069870;28;20206;-79
2022/09/04 02:20:12;;;;;;;9.00;8.10;;;;;;;20.23;100.00;99732.97;5069675;28;20604;-79
2022/09/04 02:22:45;;;;;;;8.05;7.55;;;;;;;20.26;100.00;99727.50;5069921;28;20675;-79
2022/09/04 02:25:22;;;;;;;8.73;8.13;;;;;;;20.31;100.00;99731.53;5069330;28;20231;-79
2022/09/04 02:28:00;;;;;;;8.63;8.05;;;;;;;20.29;100.00;99715.00;5069969;28;20200;-79
2022/09/04 02:30:32;;;;;;;9.25;8.50;;;;;;;20.30;100.00;99714.03;5069463;28;20200;-79
2022/09/04 02:33:09;;;;;;;9.00;8.40;;;;;;;20.33;100.00;99714.75;5069477;28;20224;-80
2022/09/04 02:35:44;;;;;;;9.48;8.65;;;;;;;20.30;100.00;99718.47;5069796;28;20206;-80
2022/09/04 02:38:25;;;;;;;11.63;8.65;;;;;;;20.18;100.00;99693.75;5069689;28;20195;-80
2022/09/04 02:40:58;;;;;;;9.15;8.38;;;;;;;20.34;100.00;99708.56;5069542;28;20203;-80
2022/09/04 02:43:44;;;;;;;9.27;8.35;;;;;;;20.34;100.00;99708.56;5069560;28;20210;-81
2022/09/04 02:46:18;;;;;;;9.40;8.10;;;;;;;20.37;100.00;99714.50;5069414;28;20199;-81
2022/09/04 02:48:58;;;;;;;8.63;8.00;;;;;;;20.29;100.00;99707.09;5070551;28;20199;-81
2022/09/04 02:51:45;;;;;;;8.77;8.15;;;;;;;20.06;100.00;99684.00;5070337;28;20207;-82
2022/09/04 02:54:25;;;;;;;8.63;8.00;;;;;;;19.80;100.00;99655.88;5069817;28;20222;-83
2022/09/04 02:57:01;;;;;;;9.38;8.15;;;;;;;20.15;100.00;99719.47;5065965;28;20194;-83
2022/09/04 02:59:42;;;;;;;9.50;8.63;;;;;;;20.07;100.00;99706.78;5068120;28;20203;-84
2022/09/04 03:02:21;;;;;;;8.65;7.88;;;;;;;19.97;100.00;99716.22;5057164;28;20215;-82
2022/09/04 03:04:55;;;;;;;9.48;8.55;;;;;;;19.95;100.00;99715.47;5057704;28;20192;-82
2022/09/04 03:07:29;;;;;;;8.95;7.93;;;;;;;19.85;100.00;99701.22;5059060;28;21293;-82
2022/09/04 03:10:04;;;;;;;9.00;7.88;;;;;;;20.02;100.00;99716.78;5062563;28;20742;-80
2022/09/04 03:12:39;;;;;;;8.73;7.90;;;;;;;20.06;100.00;99720.06;5049905;28;20779;-78
2022/09/04 03:15:16;;;;;;;8.68;7.10;;;;;;;20.07;100.00;99709.44;5048349;28;20240;-74
2022/09/04 03:17:51;;;;;;;8.35;7.53;;;;;;;19.95;100.00;99712.84;5048619;28;20192;-73
2022/09/04 03:20:23;;;;;;;8.23;7.35;;;;;;;19.84;100.00;99699.50;5048302;28;20223;-74
2022/09/04 03:22:57;;;;;;;7.82;7.20;;;;;;;19.72;100.00;99690.59;5048148;28;20207;-74
2022/09/04 03:25:54;;;;;;;7.53;7.00;;;;;;;19.83;100.00;99718.91;5047918;28;20200;-76
2022/09/04 03:28:31;;;;;;;8.02;7.20;;;;;;;19.76;100.00;99721.06;5048238;28;20197;-74
2022/09/04 03:31:05;;;;;;;8.45;7.65;;;;;;;19.65;100.00;99725.31;5047987;28;20673;-74
2022/09/04 03:33:44;;;;;;;8.88;7.95;;;;;;;19.63;100.00;99729.84;5047808;28;20235;-74
2022/09/04 03:36:18;;;;;;;8.82;7.90;;;;;;;19.36;100.00;99706.03;5047634;28;20230;-75
2022/09/04 03:39:01;;;;;;;8.93;8.13;;;;;;;19.44;100.00;99725.66;5051774;28;20585;-76
2022/09/04 03:41:41;;;;;;;8.38;7.78;;;;;;;19.51;100.00;99732.31;5051744;28;20201;-75
2022/09/04 03:44:21;;;;;;;7.35;6.65;;;;;;;19.58;100.00;99738.03;5053479;28;20246;-79
2022/09/04 03:46:59;;;;;;;8.35;7.75;;;;;;;19.62;100.00;99734.28;5051513;28;20196;-75
2022/09/04 03:49:43;;;;;;;8.93;8.10;;;;;;;19.73;100.00;99734.44;5055402;28;20678;-74
2022/09/04 03:52:18;;;;;;;8.50;7.65;;;;;;;19.69;100.00;99727.66;5071948;28;20199;-76
2022/09/04 03:55:00;;;;;;;7.93;7.43;;;;;;;19.76;100.00;99741.28;5071985;28;20647;-76
2022/09/04 03:57:45;;;;;;;8.90;7.78;;;;;;;19.55;100.00;99711.88;5072237;28;20192;-77
2022/09/04 04:00:17;;;;;;;8.38;7.68;;;;;;;19.71;100.00;99748.63;5071891;28;20274;-75
2022/09/04 04:03:07;;;;;;;9.38;8.07;;;;;;;19.74;100.00;99757.22;5071947;28;20214;-77
2022/09/04 04:05:48;;;;;;;8.60;7.93;;;;;;;19.68;100.00;99743.56;5072182;28;20206;-82
2022/09/04 04:08:34;;;;;;;9.45;8.65;;;;;;;19.86;100.00;99760.84;5072818;28;20196;-77
2022/09/04 04:11:18;;;;;;;9.32;8.43;;;;;;;19.96;100.00;99761.97;5071794;28;20635;-76
2022/09/04 04:14:08;;;;;;;9.15;8.35;;;;;;;19.98;100.00;99775.88;5071909;28;20223;-76
2022/09/04 04:16:50;;;;;;;8.68;7.95;;;;;;;19.92;100.00;99776.25;5071650;28;20235;-76
2022/09/04 04:19:51;;;;;;;8.65;7.85;;;;;;;19.91;100.00;99782.47;5071784;28;20192;-76
2022/09/04 04:22:41;;;;;;;9.02;8.13;;;;;;;19.79;100.00;99768.28;5028592;28;20199;-77
2022/09/04 04:25:24;;;;;;;8.60;7.88;;;;;;;20.05;100.00;99795.63;5071536;28;20196;-75
2022/09/04 04:28:07;;;;;;;9.05;7.55;;;;;;;20.12;100.00;99801.34;5072125;28;20219;-77
2022/09/04 04:30:48;;;;;;;7.95;7.45;;;;;;;20.03;100.00;99802.78;5072181;28;20581;-77
2022/09/04 04:33:37;;;;;;;7.78;7.10;;;;;;;20.07;100.00;99792.91;5071861;28;20223;-76
2022/09/04 04:36:16;;;;;;;7.80;7.20;;;;;;;19.87;100.00;99752.00;5071392;28;20196;-77
2022/09/04 04:39:10;;;;;;;8.27;7.15;;;;;;;20.24;100.00;99788.25;5071583;28;20640;-78
2022/09/04 04:42:04;;;;;;;7.18;6.47;;;;;;;20.25;100.00;99807.53;5063275;28;20227;-74
2022/09/04 04:47:41;;;;;;;6.78;6.28;;;;;;;20.04;100.00;99829.97;5071270;28;20273;-76
2022/09/04 04:50:16;;;;;;;7.45;6.85;;;;;;;20.10;100.00;99825.16;5070859;28;20196;-76
2022/09/04 04:52:53;;;;;;;7.43;6.82;;;;;;;20.07;100.00;99832.44;5071174;28;20230;-76
2022/09/04 04:55:37;;;;;;;6.93;6.43;;;;;;;19.98;100.00;99833.00;5070945;28;20226;-77
2022/09/04 04:58:40;;;;;;;7.43;6.78;;;;;;;19.95;100.00;99841.94;5071206;28;20707;-75
2022/09/04 05:01:19;;;;;;;7.03;6.43;;;;;;;19.83;100.00;99819.00;5070538;28;20204;-77
2022/09/04 05:04:02;;;;;;;7.63;7.03;;;;;;;19.96;100.00;99845.44;5070884;28;20199;-77
2022/09/04 05:06:36;;;;;;;7.75;6.70;;;;;;;20.02;100.00;99845.88;5071112;28;20546;-78
2022/09/04 05:09:14;;;;;;;7.90;7.40;;;;;;;19.87;100.00;99838.91;5071084;28;20195;-77
2022/09/04 05:11:53;;;;;;;8.45;7.07;;;;;;;19.92;100.00;99842.13;5070878;28;20661;-77
2022/09/04 05:14:35;;;;;;;8.05;7.28;;;;;;;19.67;100.00;99805.06;5070413;28;20219;-75
2022/09/04 05:17:11;;;;;;;7.97;7.38;;;;;;;19.83;100.00;99835.66;5070383;28;20234;-77
2022/09/04 05:19:44;;;;;;;8.18;7.28;;;;;;;19.94;100.00;99869.22;5071510;28;20583;-76
2022/09/04 05:22:18;;;;;;;8.55;7.70;;;;;;;19.95;100.00;99855.13;5061556;28;20205;-80
2022/09/04 05:24:52;;;;;;;7.88;7.18;;;;;;;19.89;100.00;99850.22;5071543;28;20582;-77
2022/09/04 05:27:39;;;;;;;7.75;7.20;;;;;;;19.83;100.00;99850.59;5061350;28;20206;-78
2022/09/04 05:30:10;;;;;;;7.45;6.82;;;;;;;19.88;100.00;99870.44;5066977;28;20196;-79
2022/09/04 05:32:45;;;;;;;8.07;7.32;;;;;;;19.92;100.00;99873.75;5070361;28;20256;-81
2022/09/04 05:35:19;;;;;;;7.60;7.05;;;;;;;20.09;100.00;99889.34;5071677;28;20636;-76
2022/09/04 05:37:56;;;;;;;8.20;7.22;;;;;;;20.09;100.00;99886.72;5071142;28;20210;-76
2022/09/04 05:40:29;;;;;;;8.82;7.32;;;;;;;20.07;100.00;99895.69;5070084;28;20192;-75
2022/09/04 05:43:14;;;;;;;15.93;6.93;;;;;;;20.05;100.00;99893.13;5071101;28;20196;-77
2022/09/04 05:45:52;;;;;;;7.75;6.97;;;;;;;20.03;100.00;99889.75;5069827;28;20206;-78
2022/09/04 05:48:25;;;;;;;7.32;6.82;;;;;;;20.15;100.00;99894.25;5069918;28;20679;-77
2022/09/04 05:51:15;;;;;;;7.65;6.90;;;;;;;20.18;100.00;99885.31;5070183;28;20199;-77
2022/09/04 05:54:10;;;;;;;8.77;7.65;;;;;;;20.26;100.00;99888.31;5069656;28;20224;-77
2022/09/04 05:57:04;;;;;;;7.63;6.93;;;;;;;20.27;100.00;99897.91;5060544;28;20283;-75
2022/09/04 06:00:03;;;;;;;9.43;8.52;;;;;;;20.25;100.00;99900.63;5070030;28;20204;-75
2022/09/04 06:02:47;;;;;;;7.97;7.38;;;;;;;20.26;100.00;99899.69;5070149;28;20206;-75
2022/09/04 06:05:23;;;;;;;9.23;8.13;;;;;;;20.35;100.00;99906.22;5070375;28;20218;-76
2022/09/04 06:08:01;;;;;;;8.35;7.53;;;;;;;20.42;100.00;99888.25;5070111;28;20204;-78
2022/09/04 06:10:46;;;;;;;7.93;7.25;;;;;;;20.31;100.00;99879.16;5073266;28;20222;-77
2022/09/04 06:13:38;;;;;;;8.07;7.47;;;;;;;20.36;100.00;99878.91;5070709;28;20583;-76
2022/09/04 06:16:35;;;;;;;8.15;7.55;;;;;;;20.41;100.00;99883.91;5071146;28;20239;-76
2022/09/04 06:19:29;;;;;;;8.20;7.53;;;;;;;20.44;100.00;99883.69;5072043;28;20203;-76
2022/09/04 06:22:23;;;;;;;8.52;7.70;;;;;;;20.48;100.00;99886.03;5063265;28;20192;-77
2022/09/04 06:25:12;;;;;;;8.80;7.95;;;;;;;20.46;100.00;99881.81;5053575;28;20653;-78
2022/09/04 06:27:57;;;;;;;7.97;7.30;;;;;;;20.36;100.00;99859.59;5069764;28;20196;-78
2022/09/04 06:30:28;;;;;;;8.52;7.68;;;;;;;20.47;100.00;99878.22;5068925;28;20198;-78
2022/09/04 06:33:12;;;;;;;8.30;7.28;;;;;;;20.52;100.00;99873.53;5069074;28;20203;-78
2022/09/04 06:36:01;;;;;;;7.88;7.28;;;;;;;20.59;100.00;99886.22;5069545;28;20199;-78
2022/09/04 06:38:49;;;;;;;8.10;7.40;;;;;;;20.55;100.00;99884.69;5069453;28;20207;-77
2022/09/04 06:41:34;;;;;;;10.40;7.72;;;;;;;20.59;100.00;99888.00;5069682;28;20192;-78
2022/09/04 06:44:11;;;;;;;9.57;8.23;;;;;;;20.47;100.00;99862.41;5069690;28;20231;-79
2022/09/04 06:46:48;;;;;;;8.18;7.47;;;;;;;20.81;100.00;99890.94;5069478;28;20199;-77
2022/09/04 06:49:24;;;;;;;8.73;7.68;;;;;;;20.84;100.00;99876.72;5069414;28;20201;-78
2022/09/04 06:52:06;;;;;;;7.90;7.20;;;;;;;20.82;100.00;99890.00;5069504;28;20196;-78
2022/09/04 06:54:46;;;;;;;9.10;8.20;;;;;;;21.06;100.00;99886.69;5070221;28;20230;-78
2022/09/04 06:57:46;;;;;;;8.95;8.20;;;;;;;21.18;100.00;99885.88;5070009;28;20709;-79
2022/09/04 07:00:15;;;;;;;8.80;7.53;;;;;;;21.69;100.00;99882.38;5069714;28;20200;-80
2022/09/04 07:03:16;;;;;;;8.27;7.68;;;;;;;22.53;100.00;99862.41;5069779;28;20667;-78
2022/09/04 07:05:54;;;;;;;7.68;7.00;;;;;;;23.56;94.96;99853.84;5069558;28;20249;-79
2022/09/04 07:08:32;;;;;;;7.82;7.13;;;;;;;24.52;88.62;99869.13;5069140;28;20634;-79
2022/09/04 07:11:14;;;;;;;6.53;6.13;;;;;;;25.86;79.49;99860.53;5069411;28;20196;-78
2022/09/04 07:13:59;;;;;;;12.60;6.25;;;;;;;27.65;70.61;99883.41;5073481;28;20215;-79
2022/09/04 07:16:35;;;;;;;6.78;6.13;;;;;;;29.43;62.33;99881.16;5073102;28;20712;-80
2022/09/04 07:19:20;;;;;;;6.05;5.60;;;;;;;31.24;56.47;99872.72;5074934;28;20199;-79
2022/09/04 07:21:59;;;;;;;7.38;6.05;;;;;;;31.12;54.10;99858.81;5073429;28;20196;-77
2022/09/04 07:25:01;;;;;;;6.95;6.30;;;;;;;30.24;56.00;99877.16;5074491;28;20200;-78
2022/09/04 07:27:42;;;;;;;7.40;6.32;;;;;;;29.41;59.05;99889.34;5030742;28;20601;-78
2022/09/04 07:30:12;;;;;;;8.70;6.72;;;;;;;28.04;65.17;99884.13;5072971;28;20676;-78
2022/09/04 07:32:44;;;;;;;7.25;6.63;;;;;;;27.18;69.35;99878.97;5072094;28;20199;-77
2022/09/04 07:35:19;;;;;;;13.48;7.80;;;;;;;26.79;70.71;99878.06;5073118;28;20223;-80
2022/09/04 07:37:57;;;;;;;10.75;8.25;;;;;;;26.90;69.92;99861.97;5073070;28;20230;-78
2022/09/04 07:40:30;;;;;;;7.88;6.97;;;;;;;27.48;68.33;99860.97;5073197;28;20195;-78
2022/09/04 07:43:04;;;;;;;8.15;7.35;;;;;;;27.99;65.10;99830.34;5072615;28;20258;-77
2022/09/04 07:45:37;;;;;;;10.20;7.43;;;;;;;28.77;61.78;99881.53;5072853;28;20310;-80
2022/09/04 07:48:17;;;;;;;7.15;6.65;;;;;;;27.78;64.63;99848.41;5071960;28;20202;-77
2022/09/04 07:51:03;;;;;;;7.28;6.88;;;;;;;26.97;68.17;99879.97;5072345;28;20200;-77
2022/09/04 07:53:52;;;;;;;7.22;6.72;;;;;;;27.51;66.68;99865.19;5072444;28;22543;-76
2022/09/04 07:56:28;;;;;;;7.05;6.57;;;;;;;29.45;58.86;99885.38;5072158;28;20282;-77
2022/09/04 07:59:27;;;;;;;7.70;7.07;;;;;;;30.29;54.97;99898.06;5072447;28;20195;-75
2022/09/04 08:02:11;;;;;;;7.68;6.20;;;;;;;29.77;55.93;99903.47;5072192;28;20617;-76
2022/09/04 08:05:10;;;;;;;7.32;6.82;;;;;;;29.30;58.55;99905.59;5072238;28;20589;-79
2022/09/04 08:08:02;;;;;;;7.03;6.63;;;;;;;29.80;57.04;99895.09;5072349;28;20585;-78
2022/09/04 08:10:34;;;;;;;7.53;7.13;;;;;;;31.09;54.19;99901.19;5071966;28;20195;-76
2022/09/04 08:13:17;;;;;;;7.07;6.53;;;;;;;32.36;48.26;99911.13;5072195;28;20199;-76
2022/09/04 08:15:57;;;;;;;7.05;6.65;;;;;;;33.69;45.37;99907.19;5063121;28;20232;-81
2022/09/04 08:18:57;;;;;;;6.65;6.15;;;;;;;34.33;42.49;99904.84;5061151;28;20192;-77
2022/09/04 08:21:29;;;;;;;7.07;6.60;;;;;;;32.36;46.97;99873.50;5061643;28;20192;-78
2022/09/04 08:24:38;;;;;;;6.03;5.65;;;;;;;33.12;45.42;99874.53;5060660;28;20208;-78
2022/09/04 08:27:16;;;;;;;7.10;6.60;;;;;;;33.39;45.28;99903.63;5033163;28;20591;-77
2022/09/04 08:29:57;;;;;;;7.35;6.82;;;;;;;32.59;46.10;99883.47;5051892;28;20197;-78
2022/09/04 08:32:47;;;;;;;8.23;7.60;;;;;;;31.43;48.75;99898.34;5052199;28;20694;-78
2022/09/04 08:35:23;;;;;;;7.18;6.70;;;;;;;31.60;49.44;99895.50;5051664;28;20227;-77
2022/09/04 08:38:07;;;;;;;7.53;7.03;;;;;;;32.52;46.82;99891.38;5060490;28;20203;-77
2022/09/04 08:41:11;;;;;;;7.18;6.68;;;;;;;33.68;44.17;99886.66;5061363;28;20222;-77
2022/09/04 08:44:08;;;;;;;7.88;7.18;;;;;;;34.05;42.72;99877.72;5062172;28;20192;-78
2022/09/04 08:47:06;;;;;;;7.95;7.30;;;;;;;33.95;43.15;99889.78;5061593;28;20279;-79
2022/09/04 08:50:06;;;;;;;8.15;7.35;;;;;;;34.44;42.16;99890.88;5062018;28;20691;-78
2022/09/04 08:53:03;;;;;;;7.10;6.70;;;;;;;34.41;41.39;99890.44;5053693;28;20201;-79
2022/09/04 08:55:44;;;;;;;7.50;7.10;;;;;;;34.90;40.24;99880.66;5051165;28;20225;-84
2022/09/04 08:58:55;;;;;;;8.77;8.00;;;;;;;35.49;38.48;99855.22;5051227;28;20200;-79
2022/09/04 09:02:15;;;;;;;9.32;8.60;;;;;;;33.64;42.47;99889.91;5052298;28;20600;-84
2022/09/04 09:05:09;;;;;;;12.63;9.27;;;;;;;31.82;46.20;99877.88;5049345;28;20192;-80
2022/09/04 09:08:10;;;;;;;9.50;8.80;;;;;;;30.70;49.99;99876.81;5050815;28;20196;-80
2022/09/04 09:10:41;;;;;;;10.43;9.57;;;;;;;29.58;53.54;99853.66;5051037;28;20683;-78
2022/09/04 09:13:37;;;;;;;9.25;8.75;;;;;;;28.67;56.77;99867.41;5050733;28;20681;-79
2022/09/04 09:16:23;;;;;;;10.50;9.57;;;;;;;28.07;59.97;99859.81;5050716;28;20605;-79
2022/09/04 09:19:09;;;;;;;10.15;9.38;;;;;;;27.67;62.26;99872.59;5056748;28;20716;-81
2022/09/04 09:21:44;;;;;;;10.63;9.90;;;;;;;27.20;65.05;99863.69;5064586;28;20261;-80
2022/09/04 09:24:52;;;;;;;10.60;9.88;;;;;;;27.19;65.98;99865.50;5070846;28;20197;-78
2022/09/04 09:27:52;;;;;;;10.25;9.60;;;;;;;28.03;62.41;99858.44;5070606;28;20257;-76
2022/09/04 09:30:21;;;;;;;10.38;9.70;;;;;;;29.55;56.81;99869.22;5038291;28;20634;-75
2022/09/04 09:33:23;;;;;;;10.38;9.60;;;;;;;30.89;52.74;99863.94;5070389;28;20668;-77
2022/09/04 09:36:08;;;;;;;10.80;9.82;;;;;;;32.06;48.96;99888.50;5070331;28;20276;-77
2022/09/04 09:39:11;;;;;;;10.40;9.80;;;;;;;32.79;46.68;99895.47;5070983;28;20602;-77
2022/09/04 09:42:14;;;;;;;11.05;10.23;;;;;;;34.86;41.56;99903.66;5070905;28;20206;-79
2022/09/04 09:45:17;;;;;;;10.98;9.80;;;;;;;35.04;40.35;99903.19;5008787;28;20204;-78
2022/09/04 09:48:23;;;;;;;11.90;9.63;;;;;;;33.75;42.16;99895.72;5050253;28;20196;-78
2022/09/04 09:51:21;;;;;;;10.63;9.93;;;;;;;32.18;45.57;99883.63;5050110;28;20196;-77
2022/09/04 09:54:15;;;;;;;10.35;9.65;;;;;;;31.17;48.65;99882.41;5050181;28;20200;-76
2022/09/04 09:57:28;;;;;;;10.02;9.43;;;;;;;30.23;52.14;99874.63;5034100;28;20224;-77
2022/09/04 10:00:15;;;;;;;11.15;10.38;;;;;;;29.21;56.80;99864.59;5025416;28;20207;-77
2022/09/04 10:03:15;;;;;;;10.80;10.20;;;;;;;28.98;57.77;99859.88;5049759;28;20208;-77
2022/09/04 10:06:27;;;;;;;10.98;9.93;;;;;;;29.04;58.07;99864.59;5049732;28;20189;-77
2022/09/04 10:09:41;;;;;;;11.05;10.25;;;;;;;28.92;58.23;99847.94;5049746;28;20197;-77
2022/09/04 10:12:36;;;;;;;11.95;10.80;;;;;;;28.33;60.41;99849.31;5049508;28;20200;-77
2022/09/04 10:15:42;;;;;;;12.02;11.05;;;;;;;28.07;61.47;99857.16;5047048;28;20229;-77
2022/09/04 10:18:40;;;;;;;11.50;10.57;;;;;;;27.66;63.76;99839.75;5050460;28;20204;-76
2022/09/04 10:21:42;;;;;;;12.18;11.25;;;;;;;27.30;65.75;99845.84;5050357;28;20555;-77
2022/09/04 10:24:43;;;;;;;12.90;11.55;;;;;;;26.70;68.13;99850.47;5049991;28;20202;-78
2022/09/04 10:27:45;;;;;;;12.25;11.13;;;;;;;26.64;68.62;99848.34;5050320;28;20196;-78
2022/09/04 10:30:34;;;;;;;11.90;11.10;;;;;;;26.27;69.61;99829.47;5052314;28;20655;-77
2022/09/04 10:33:26;;;;;;;12.73;11.57;;;;;;;26.37;68.96;99847.19;5050056;28;20203;-77
2022/09/04 10:36:05;;;;;;;12.00;10.90;;;;;;;26.47;68.39;99843.69;5050210;28;20220;-78
2022/09/04 10:41:53;;;;;;;12.45;11.45;;;;;;;26.56;68.08;99814.41;5049482;28;20207;-77
2022/09/04 10:44:58;;;;;;;11.82;10.93;;;;;;;26.56;67.91;99826.88;5050161;28;20201;-78
2022/09/04 10:51:07;;;;;;;11.57;10.68;;;;;;;26.94;65.96;99831.44;5013791;28;20204;-78
2022/09/04 10:54:05;;;;;;;11.60;10.85;;;;;;;26.85;64.86;99824.25;5054715;28;20193;-78
2022/09/04 10:56:46;;;;;;;11.85;10.93;;;;;;;26.73;65.37;99811.09;5054254;28;20200;-79
2022/09/04 11:00:02;;;;;;;12.13;11.25;;;;;;;26.76;66.54;99808.13;5056073;28;20207;-78
2022/09/04 11:03:01;;;;;;;11.75;11.00;;;;;;;26.58;66.29;99796.50;4993013;28;20213;-78
2022/09/04 11:05:46;;;;;;;11.82;11.02;;;;;;;26.69;64.63;99801.69;4992645;28;20606;-77
2022/09/04 11:08:45;;;;;;;11.25;10.45;;;;;;;26.56;65.33;99786.97;5046829;28;20209;-77
2022/09/04 11:11:28;;;;;;;12.43;11.63;;;;;;;26.66;65.42;99770.00;5021096;28;20201;-78
2022/09/04 11:14:27;;;;;;;11.32;10.57;;;;;;;26.71;65.30;99778.41;5053788;28;20200;-78
2022/09/04 11:17:20;;;;;;;11.25;10.25;;;;;;;26.97;65.31;99772.56;5053497;28;20232;-77
2022/09/04 11:20:22;;;;;;;11.90;11.18;;;;;;;27.18;64.08;99764.38;5053861;28;20199;-78
2022/09/04 11:23:17;;;;;;;11.85;10.93;;;;;;;27.14;62.92;99739.84;5051380;28;20283;-78
2022/09/04 11:26:25;;;;;;;12.43;11.35;;;;;;;27.34;63.68;99753.94;5053549;28;20395;-78
2022/09/04 11:29:16;;;;;;;12.25;11.25;;;;;;;27.48;62.82;99754.31;5053207;28;20196;-79
2022/09/04 11:32:00;;;;;;;12.23;11.32;;;;;;;27.40;62.78;99753.38;5053279;28;20294;-77
2022/09/04 11:34:59;;;;;;;11.30;10.45;;;;;;;27.32;62.46;99762.06;5053435;28;20208;-79
2022/09/04 11:37:57;;;;;;;10.85;10.15;;;;;;;27.25;63.19;99760.97;5053269;28;20196;-79
2022/09/04 11:41:09;;;;;;;11.50;10.73;;;;;;;27.26;63.94;99754.66;5053444;28;20200;-78
2022/09/04 11:44:04;;;;;;;12.05;11.25;;;;;;;27.32;63.17;99716.75;5025823;28;20630;-79
2022/09/04 11:47:06;;;;;;;12.45;11.35;;;;;;;27.73;62.58;99744.84;5043240;28;20247;-78
2022/09/04 11:49:55;;;;;;;12.40;11.27;;;;;;;27.69;62.77;99738.09;5062580;28;20199;-77
2022/09/04 11:52:34;;;;;;;11.32;10.52;;;;;;;27.45;62.96;99735.09;5040298;28;20197;-76
2022/09/04 11:55:40;;;;;;;12.25;11.45;;;;;;;27.22;63.93;99734.59;5052147;28;20744;-75
2022/09/04 11:58:39;;;;;;;11.55;10.63;;;;;;;27.10;63.81;99733.09;5051072;28;20200;-77
2022/09/04 12:01:24;;;;;;;11.02;10.32;;;;;;;26.95;64.20;99723.91;5051433;28;20206;-77
2022/09/04 12:04:29;;;;;;;10.50;9.60;;;;;;;27.00;64.65;99705.63;5051769;28;20201;-75
2022/09/04 12:07:12;;;;;;;10.88;10.10;;;;;;;27.24;62.77;99706.00;4970678;28;20702;-77
2022/09/04 12:10:07;;;;;;;10.05;9.45;;;;;;;27.19;63.20;99707.44;5046147;28;20749;-77
2022/09/04 12:13:16;;;;;;;10.90;10.13;;;;;;;27.06;63.87;99703.25;5051976;28;20665;-78
2022/09/04 12:16:05;;;;;;;10.73;9.98;;;;;;;27.11;64.43;99708.13;5015783;28;20232;-79
2022/09/04 12:18:50;;;;;;;10.25;9.68;;;;;;;27.24;65.42;99715.81;5051323;28;20594;-78
2022/09/04 12:21:52;;;;;;;10.27;9.55;;;;;;;27.04;65.30;99696.38;5057329;28;20599;-79
2022/09/04 12:24:44;;;;;;;10.45;9.65;;;;;;;27.07;65.47;99717.41;5057148;28;20595;-77
2022/09/04 12:27:41;;;;;;;10.27;9.57;;;;;;;26.81;65.92;99690.53;5057712;28;20201;-79
2022/09/04 12:30:14;;;;;;;11.50;9.30;;;;;;;26.93;66.01;99718.72;5051969;28;20269;-77
2022/09/04 12:33:23;;;;;;;10.15;9.45;;;;;;;27.05;65.46;99704.25;5056851;28;20218;-79
2022/09/04 12:36:21;;;;;;;10.50;9.60;;;;;;;26.86;66.02;99688.28;4970700;28;20680;-78
2022/09/04 12:39:14;;;;;;;9.93;9.32;;;;;;;26.87;64.21;99665.13;5053324;28;20197;-78
2022/09/04 12:41:54;;;;;;;10.43;9.52;;;;;;;27.08;65.85;99697.78;5068139;28;20199;-76
2022/09/04 12:44:33;;;;;;;9.50;9.00;;;;;;;27.03;65.96;99697.38;5071028;28;20225;-76
2022/09/04 12:47:14;;;;;;;10.20;9.40;;;;;;;26.99;65.59;99691.47;5071846;28;20207;-78
2022/09/04 12:50:05;;;;;;;8.77;8.38;;;;;;;26.95;65.11;99694.59;5071417;28;20287;-78
2022/09/04 12:52:49;;;;;;;10.90;10.00;;;;;;;26.98;65.50;99684.47;5071393;28;20210;-77
2022/09/04 12:55:22;;;;;;;9.55;8.85;;;;;;;26.93;64.11;99705.38;5071075;28;20262;-77
2022/09/04 12:58:01;;;;;;;8.98;8.32;;;;;;;26.86;65.05;99690.94;5071317;28;20222;-78